KICL/ICL METAR and TAF weather

Enter ICAO airport designator
Station Type Date Time Source
KICL METAR 2020/11/28 19:55 UTC NOAA

KICL 281955Z AUTO 23015G21KT 10SM CLR 14/00 A3007 RMK AO2


Station Type Date Time Source
KICL Decoded METAR 2020/11/28 19:55 UTC NOAA

Clarinda, IA, United States (KICL) 40-43N 095-02W
Nov 28, 2020 - 02:55 PM EST / 2020.11.28 1955 UTC
Wind: from the SW (230 degrees) at 17 MPH (15 KT) gusting to 24 MPH (21 KT):0
Visibility: 10 mile(s):0
Sky conditions: clear
Temperature: 57 F (14 C)
Dew Point: 32 F (0 C)
Relative Humidity: 38%
Pressure (altimeter): 30.07 in. Hg (1018 hPa)
ob: KICL 281955Z AUTO 23015G21KT 10SM CLR 14/00 A3007 RMK AO2
cycle: 20

Station Type Date Time Source
KICL TAF UTC NOAA

Error!

Example: see airport list